Time;durP1;ratioP1;P1;durP2;ratioP2;P2;SDS_P1;SDS_P2;PMS_P1;PMS_P2;Temp;Humidity;BMP_temperature;BMP_pressure;BME280_temperature;BME280_humidity;BME280_pressure;Samples;Min_cycle;Max_cycle;Signal;HPM_P1;HPM_P2
2022/01/18 00:00:45;;;;;;;19.25;4.40;;;;;;;4.00;87.26;100626.25;4839758;29;20671;-86
2022/01/18 00:03:11;;;;;;;27.10;3.83;;;;;;;3.97;87.49;100620.47;4826257;29;20470;-86
2022/01/18 00:05:37;;;;;;;21.20;5.25;;;;;;;4.01;87.42;100617.34;4826635;29;20027;-86
2022/01/18 00:08:03;;;;;;;13.38;3.88;;;;;;;3.98;87.29;100620.31;4838677;29;20562;-85
2022/01/18 00:10:32;;;;;;;17.75;3.70;;;;;;;4.02;87.49;100626.09;4860052;29;20025;-85
2022/01/18 00:20:56;;;;;;;11.52;3.58;;;;;;;3.80;86.85;100606.38;4844680;29;20073;-85
2022/01/18 00:23:17;;;;;;;19.55;5.97;;;;;;;3.98;87.48;100649.34;4855865;23;20049;-86
2022/01/18 00:25:47;;;;;;;15.23;3.53;;;;;;;3.98;87.28;100652.00;4851380;29;20512;-86
2022/01/18 00:28:13;;;;;;;14.07;4.07;;;;;;;3.98;87.45;100644.06;4850142;29;20045;-86
2022/01/18 00:33:20;;;;;;;12.68;4.80;;;;;;;3.93;87.61;100638.47;4847701;29;20036;-85
2022/01/18 00:35:47;;;;;;;19.42;4.65;;;;;;;3.99;87.08;100661.59;4860292;29;20410;-86
2022/01/18 00:38:28;;;;;;;21.55;4.90;;;;;;;3.99;87.13;100653.66;4852514;29;20123;-86
2022/01/18 00:40:53;;;;;;;21.73;5.45;;;;;;;3.90;87.13;100652.00;4854413;29;20537;-85
2022/01/18 00:43:18;;;;;;;17.23;3.53;;;;;;;3.99;87.55;100650.19;4856207;29;20133;-85
2022/01/18 00:45:44;;;;;;;22.33;4.32;;;;;;;4.00;87.57;100659.78;4849015;29;20044;-85
2022/01/18 00:48:09;;;;;;;19.90;3.92;;;;;;;4.00;87.36;100651.84;4857824;29;20122;-86
2022/01/18 00:50:35;;;;;;;19.25;3.95;;;;;;;3.99;87.58;100651.03;4838482;29;20486;-85
2022/01/18 00:53:05;;;;;;;20.05;3.88;;;;;;;3.92;87.22;100650.00;4844362;29;20403;-85
2022/01/18 00:55:35;;;;;;;17.33;4.20;;;;;;;4.00;87.68;100652.66;4859558;29;20042;-86
2022/01/18 00:58:00;;;;;;;12.35;3.70;;;;;;;4.00;87.53;100657.16;4845187;29;20034;-85
2022/01/18 01:00:25;;;;;;;13.93;3.63;;;;;;;3.99;87.16;100658.13;4864646;29;20090;-85
2022/01/18 01:02:51;;;;;;;13.52;3.90;;;;;;;3.99;87.61;100661.59;4837138;29;20041;-86
2022/01/18 01:05:16;;;;;;;12.93;4.07;;;;;;;3.98;87.25;100667.84;4847755;29;20038;-86
2022/01/18 01:07:42;;;;;;;11.65;3.60;;;;;;;3.91;87.05;100650.97;4857179;29;20483;-87
2022/01/18 01:10:07;;;;;;;22.27;4.60;;;;;;;3.97;87.80;100658.28;4844406;29;20105;-86
2022/01/18 01:12:33;;;;;;;17.00;4.20;;;;;;;3.90;87.28;100646.72;4857019;29;20132;-85
2022/01/18 01:15:06;;;;;;;17.20;4.38;;;;;;;3.98;87.16;100646.72;4867130;29;20025;-86
2022/01/18 01:17:44;;;;;;;23.92;4.13;;;;;;;3.16;87.41;100522.59;4849226;29;20033;-86
2022/01/18 01:36:49;;;;;;;12.40;3.92;;;;;;;3.94;87.44;100663.03;4858818;29;20406;-87
2022/01/18 01:42:06;;;;;;;8.35;3.33;;;;;;;3.94;87.27;100665.69;4859848;29;20088;-89
2022/01/18 01:44:47;;;;;;;19.25;4.63;;;;;;;3.63;87.61;100621.38;4844048;29;20033;-88
2022/01/18 01:47:18;;;;;;;18.50;4.35;;;;;;;3.94;87.76;100671.81;4858245;29;20090;-88
2022/01/18 01:49:50;;;;;;;12.27;3.67;;;;;;;3.93;87.69;100667.53;4858514;29;20483;-88
2022/01/18 01:52:18;;;;;;;6.78;3.05;;;;;;;3.94;87.37;100669.16;4858993;29;20081;-88
2022/01/18 01:54:43;;;;;;;13.80;3.58;;;;;;;3.95;87.73;100664.72;4856223;29;20057;-85
2022/01/18 01:57:10;;;;;;;13.43;3.42;;;;;;;3.93;87.36;100661.41;4821995;29;20041;-85
2022/01/18 01:59:36;;;;;;;14.65;4.32;;;;;;;3.66;87.66;100612.31;4848134;29;20418;-85
2022/01/18 02:02:02;;;;;;;14.73;3.53;;;;;;;3.93;87.16;100670.16;4848714;29;20048;-86
2022/01/18 02:04:27;;;;;;;16.20;3.70;;;;;;;3.92;87.11;100670.31;4867146;29;20438;-86
2022/01/18 02:06:53;;;;;;;14.07;3.50;;;;;;;3.86;87.49;100660.41;4851551;29;20025;-87
2022/01/18 02:09:19;;;;;;;15.02;3.92;;;;;;;3.84;87.49;100655.28;4841474;29;20482;-86
2022/01/18 02:11:46;;;;;;;13.32;4.18;;;;;;;3.75;87.23;100632.47;4847101;29;20038;-86
2022/01/18 02:14:18;;;;;;;11.40;3.40;;;;;;;3.93;87.39;100669.34;4845969;29;20098;-86
2022/01/18 02:22:12;;;;;;;15.25;3.15;;;;;;;3.86;87.22;100665.69;4864261;29;20086;-85
2022/01/18 02:24:39;;;;;;;12.23;3.28;;;;;;;3.68;87.28;100627.00;4862450;29;20094;-87
2022/01/18 02:27:04;;;;;;;17.75;3.72;;;;;;;3.85;87.00;100654.28;4845132;29;20030;-86
2022/01/18 02:29:30;;;;;;;15.23;3.67;;;;;;;3.68;87.29;100618.25;4873763;29;20109;-87
2022/01/18 02:31:56;;;;;;;16.60;3.75;;;;;;;3.80;86.69;100646.00;4843349;29;20036;-87
2022/01/18 02:34:23;;;;;;;17.42;5.97;;;;;;;3.86;87.24;100658.59;4869605;29;20487;-87
2022/01/18 02:36:50;;;;;;;12.32;3.05;;;;;;;3.85;86.99;100656.91;4849193;29;20045;-87
2022/01/18 02:39:21;;;;;;;13.77;4.68;;;;;;;3.85;87.34;100658.72;4875048;29;20068;-87
2022/01/18 02:42:07;;;;;;;14.63;3.83;;;;;;;3.81;87.12;100660.88;4861689;29;20048;-87
2022/01/18 02:44:35;;;;;;;8.18;3.50;;;;;;;3.82;87.32;100654.63;4873501;29;20029;-85
2022/01/18 02:47:01;;;;;;;8.52;3.28;;;;;;;3.82;87.08;100665.19;4869132;29;20026;-87
2022/01/18 02:49:28;;;;;;;13.35;4.55;;;;;;;3.70;87.11;100643.53;4856696;29;20057;-85
2022/01/18 02:51:57;;;;;;;13.00;3.67;;;;;;;3.82;87.56;100659.06;4870389;29;20113;-85
2022/01/18 02:54:23;;;;;;;9.10;3.63;;;;;;;3.71;87.64;100647.00;4853522;29;20111;-85
2022/01/18 02:56:59;;;;;;;8.48;3.22;;;;;;;3.82;87.45;100654.63;4860059;29;20598;-86
2022/01/18 02:59:43;;;;;;;10.00;3.10;;;;;;;3.84;87.98;100659.72;4861533;29;20049;-85
2022/01/18 03:05:05;;;;;;;10.32;2.90;;;;;;;3.72;87.96;100646.00;4843206;29;20187;-86
2022/01/18 03:07:31;;;;;;;12.15;3.22;;;;;;;3.83;87.81;100661.53;4856100;29;20039;-85
2022/01/18 03:09:56;;;;;;;7.95;2.95;;;;;;;3.73;87.54;100637.09;4852678;29;20041;-86
2022/01/18 03:12:22;;;;;;;13.07;3.58;;;;;;;3.77;87.42;100641.91;4873655;29;20487;-85
2022/01/18 03:14:47;;;;;;;10.57;4.03;;;;;;;3.69;87.50;100633.94;4832459;29;20743;-85
2022/01/18 03:17:12;;;;;;;9.00;3.33;;;;;;;3.81;87.84;100658.22;4867994;29;20061;-86
2022/01/18 03:19:38;;;;;;;10.00;3.47;;;;;;;3.84;87.88;100659.72;4849223;29;20040;-85
2022/01/18 03:22:04;;;;;;;15.88;3.45;;;;;;;3.86;87.50;100663.03;4866739;29;20044;-86
2022/01/18 03:29:40;;;;;;;6.85;3.30;;;;;;;3.86;88.18;100670.97;4864642;29;20048;-85
2022/01/18 03:32:06;;;;;;;11.85;4.05;;;;;;;3.84;88.34;100670.28;4843471;29;20101;-84
2022/01/18 03:34:32;;;;;;;6.95;3.83;;;;;;;3.85;88.50;100666.66;4843871;29;20044;-87
2022/01/18 03:36:58;;;;;;;15.65;3.97;;;;;;;3.86;88.30;100677.06;4857953;29;20034;-87
2022/01/18 03:39:23;;;;;;;8.18;3.70;;;;;;;3.87;87.73;100684.00;4857256;29;20476;-86
2022/01/18 03:41:54;;;;;;;5.13;2.90;;;;;;;3.61;87.81;100641.00;4857663;29;20041;-87
2022/01/18 03:44:22;;;;;;;8.60;4.28;;;;;;;3.83;87.71;100674.75;4872963;29;20116;-87
2022/01/18 03:46:49;;;;;;;9.73;3.40;;;;;;;3.88;88.14;100666.34;4871626;29;20517;-85
2022/01/18 03:49:15;;;;;;;9.52;3.83;;;;;;;3.65;88.18;100640.53;4853655;29;20064;-85
2022/01/18 03:51:40;;;;;;;9.40;3.05;;;;;;;3.84;88.55;100663.22;4872781;29;20112;-85
2022/01/18 03:54:06;;;;;;;5.75;3.40;;;;;;;3.83;88.32;100665.97;4853476;29;20041;-85
2022/01/18 03:56:31;;;;;;;5.95;3.50;;;;;;;3.80;88.42;100660.03;4845993;29;20395;-85
2022/01/18 03:58:57;;;;;;;6.70;3.30;;;;;;;3.77;88.19;100651.63;4857827;29;20034;-85
2022/01/18 04:01:22;;;;;;;7.25;3.20;;;;;;;3.88;88.11;100668.97;4865857;29;20492;-85
2022/01/18 04:03:48;;;;;;;9.95;4.05;;;;;;;3.87;87.66;100680.56;4853648;29;20528;-85
2022/01/18 04:06:14;;;;;;;10.77;3.70;;;;;;;3.86;87.52;100682.34;4878752;29;20182;-87
2022/01/18 04:08:39;;;;;;;6.28;3.38;;;;;;;3.87;87.96;100678.72;4863054;29;20048;-85
2022/01/18 04:11:05;;;;;;;11.77;3.40;;;;;;;3.86;88.25;100671.78;4862896;29;20557;-86
2022/01/18 04:13:30;;;;;;;10.75;3.53;;;;;;;3.85;87.78;100675.41;4862889;29;20036;-86
2022/01/18 04:15:55;;;;;;;8.13;3.42;;;;;;;3.85;88.27;100677.22;4862898;29;20141;-86
2022/01/18 04:28:49;;;;;;;7.18;2.97;;;;;;;3.83;88.36;100680.03;4893636;29;20049;-87
2022/01/18 04:31:15;;;;;;;10.45;3.72;;;;;;;3.83;88.31;100687.94;4878415;29;20039;-86
2022/01/18 04:33:40;;;;;;;7.78;3.15;;;;;;;3.84;88.50;100686.97;4858071;29;20395;-85
2022/01/18 04:36:08;;;;;;;8.13;3.38;;;;;;;3.58;88.06;100647.41;4859271;29;20109;-85
2022/01/18 04:38:35;;;;;;;6.38;3.13;;;;;;;3.79;87.99;100681.34;4859583;29;20053;-85
2022/01/18 04:41:13;;;;;;;7.93;3.58;;;;;;;3.85;88.33;100685.97;4859442;29;20026;-86
2022/01/18 04:48:52;;;;;;;7.57;3.60;;;;;;;3.79;88.33;100692.72;4860777;29;20081;-87
2022/01/18 04:51:18;;;;;;;8.63;3.60;;;;;;;3.87;88.64;100699.84;4867659;29;20060;-88
2022/01/18 04:53:52;;;;;;;8.07;3.13;;;;;;;3.77;88.57;100683.31;4859077;29;20646;-86
2022/01/18 04:59:09;;;;;;;8.13;3.40;;;;;;;3.87;88.50;100697.19;4865111;29;20418;-85
2022/01/18 05:01:37;;;;;;;8.98;3.95;;;;;;;3.73;88.56;100674.06;4846050;29;20026;-85
2022/01/18 05:04:02;;;;;;;7.45;3.53;;;;;;;3.86;88.53;100694.72;4834447;29;20061;-85
2022/01/18 05:06:28;;;;;;;7.90;3.28;;;;;;;3.87;88.71;100694.56;4840130;29;20036;-85
2022/01/18 05:08:54;;;;;;;13.23;3.90;;;;;;;3.73;88.57;100687.25;4840063;29;20064;-85
2022/01/18 05:11:22;;;;;;;9.18;3.25;;;;;;;3.88;88.25;100709.44;4844734;29;20033;-85
2022/01/18 05:19:09;;;;;;;5.28;3.25;;;;;;;3.89;88.37;100703.16;4857207;29;20030;-85
2022/01/18 05:22:57;;;;;;;9.40;2.95;;;;;;;3.89;88.42;100705.78;4870476;29;20440;-86
2022/01/18 05:24:23;;;;;;;7.72;4.18;;;;;;;3.88;88.84;100717.34;4850200;29;20441;-86
2022/01/18 05:26:49;;;;;;;9.05;3.35;;;;;;;3.88;88.74;100722.63;4862410;29;20117;-86
2022/01/18 05:29:14;;;;;;;5.68;3.13;;;;;;;3.88;88.76;100719.16;4855741;29;20079;-85
2022/01/18 05:31:40;;;;;;;7.18;3.42;;;;;;;3.89;88.74;100716.34;4847773;29;20041;-86
2022/01/18 05:34:05;;;;;;;7.47;3.75;;;;;;;3.82;88.87;100707.44;4874950;29;20102;-85
2022/01/18 05:36:31;;;;;;;8.85;3.50;;;;;;;3.91;88.44;100714.38;4866369;29;20048;-85
2022/01/18 05:38:57;;;;;;;8.18;3.50;;;;;;;3.92;88.36;100726.63;4856876;29;20406;-84
2022/01/18 05:41:22;;;;;;;7.38;3.65;;;;;;;3.91;88.82;100727.59;4850304;29;20124;-85
2022/01/18 05:43:47;;;;;;;6.00;3.17;;;;;;;3.94;88.38;100727.28;4854865;29;20090;-83
2022/01/18 05:46:16;;;;;;;5.15;3.10;;;;;;;3.89;89.03;100728.75;4841506;29;20037;-85
2022/01/18 05:48:43;;;;;;;5.40;3.53;;;;;;;3.93;89.41;100748.56;4858172;29;20105;-86
2022/01/18 05:51:08;;;;;;;4.10;3.15;;;;;;;3.94;88.95;100737.84;4843734;29;20037;-85
2022/01/18 05:53:35;;;;;;;4.78;2.75;;;;;;;3.94;88.59;100745.78;4854427;29;20049;-86
2022/01/18 05:56:02;;;;;;;7.00;2.95;;;;;;;3.85;88.90;100730.03;4833242;29;20052;-85
2022/01/18 05:58:28;;;;;;;7.57;3.00;;;;;;;3.76;88.80;100718.63;4860832;29;20519;-85
2022/01/18 06:00:55;;;;;;;4.63;3.25;;;;;;;3.96;89.19;100741.16;4849462;29;20074;-88
2022/01/18 06:04:11;;;;;;;5.60;3.22;;;;;;;3.96;88.99;100751.72;4845064;29;20033;-85
2022/01/18 06:08:58;;;;;;;5.22;3.50;;;;;;;3.76;89.21;100715.97;4845819;29;20040;-85
2022/01/18 06:11:23;;;;;;;4.00;3.03;;;;;;;4.06;89.89;100746.31;4855637;29;20494;-85
2022/01/18 06:13:49;;;;;;;4.75;3.08;;;;;;;4.11;89.46;100754.56;4861811;29;20025;-85
2022/01/18 06:16:14;;;;;;;13.82;2.95;;;;;;;4.12;89.73;100751.78;4826982;29;20034;-85
2022/01/18 06:18:39;;;;;;;28.45;4.35;;;;;;;4.10;89.61;100742.38;4845435;29;20041;-85
2022/01/18 06:21:05;;;;;;;8.35;3.03;;;;;;;4.18;89.18;100764.34;4860465;29;20075;-84
2022/01/18 06:23:30;;;;;;;9.15;3.10;;;;;;;4.09;89.38;100749.44;4845172;29;20686;-83
2022/01/18 06:26:02;;;;;;;7.80;3.10;;;;;;;4.18;88.91;100767.00;4844320;29;20033;-86
2022/01/18 06:28:28;;;;;;;8.40;2.95;;;;;;;4.20;88.75;100772.94;4855852;29;20030;-87
2022/01/18 06:30:54;;;;;;;7.15;3.22;;;;;;;4.19;88.99;100768.66;4859077;29;20066;-86
2022/01/18 06:33:19;;;;;;;8.90;3.70;;;;;;;4.18;89.10;100767.00;4871729;29;20176;-85
2022/01/18 06:35:44;;;;;;;5.70;2.90;;;;;;;4.17;88.42;100767.16;4858372;29;20048;-85
2022/01/18 06:38:12;;;;;;;5.00;2.38;;;;;;;4.16;88.56;100762.84;4849685;29;20487;-85
2022/01/18 06:40:38;;;;;;;6.75;3.17;;;;;;;4.16;88.95;100768.97;4836734;29;20439;-84
2022/01/18 06:43:04;;;;;;;9.13;3.60;;;;;;;4.15;88.98;100771.78;4841355;29;20042;-84
2022/01/18 06:45:29;;;;;;;6.60;2.63;;;;;;;4.14;88.91;100786.81;4863756;29;20109;-84
2022/01/18 06:47:55;;;;;;;5.10;2.50;;;;;;;4.04;88.86;100777.34;4856620;29;20049;-85
2022/01/18 06:50:21;;;;;;;6.68;2.90;;;;;;;4.00;89.01;100768.09;4860684;29;20169;-84
2022/01/18 06:52:46;;;;;;;5.88;2.58;;;;;;;4.13;88.96;100795.69;4845557;29;20048;-86
2022/01/18 06:55:12;;;;;;;3.60;2.20;;;;;;;4.02;89.09;100781.97;4843448;29;20029;-85
2022/01/18 06:57:38;;;;;;;4.95;3.60;;;;;;;4.12;88.91;100793.22;4860067;29;20097;-86
2022/01/18 07:00:05;;;;;;;3.80;2.47;;;;;;;4.12;88.94;100803.81;4854314;29;20061;-84
2022/01/18 07:02:30;;;;;;;4.45;2.75;;;;;;;4.04;88.72;100790.56;4861554;29;20072;-85
2022/01/18 07:04:56;;;;;;;5.03;2.50;;;;;;;3.92;88.84;100768.88;4857828;29;20068;-85
2022/01/18 07:07:21;;;;;;;6.13;2.22;;;;;;;3.96;89.53;100769.38;4875478;29;20060;-85
2022/01/18 07:09:47;;;;;;;3.88;2.88;;;;;;;4.09;89.11;100798.81;4852759;29;20046;-86
2022/01/18 07:12:13;;;;;;;4.00;2.97;;;;;;;4.10;89.07;100801.31;4843789;29;20098;-84
2022/01/18 07:14:39;;;;;;;4.50;3.35;;;;;;;3.90;89.12;100770.00;4847399;29;20045;-86
2022/01/18 07:17:05;;;;;;;4.47;2.75;;;;;;;4.11;89.35;100805.59;4859153;29;20384;-86
2022/01/18 07:19:32;;;;;;;2.88;2.58;;;;;;;3.94;89.34;100785.38;4859422;29;20125;-86
2022/01/18 07:21:58;;;;;;;4.40;2.88;;;;;;;4.09;89.07;100810.22;4859105;29;20487;-86
2022/01/18 07:25:11;;;;;;;5.65;2.72;;;;;;;4.09;89.54;100812.88;4861873;29;20030;-84
2022/01/18 07:27:14;;;;;;;3.72;2.97;;;;;;;4.03;88.87;100807.38;4853010;29;20395;-86
2022/01/18 07:29:42;;;;;;;5.13;3.70;;;;;;;3.91;89.31;100790.97;4863335;29;20094;-87
2022/01/18 07:32:11;;;;;;;4.45;2.65;;;;;;;3.93;88.66;100794.31;4862058;29;20033;-86
2022/01/18 07:34:41;;;;;;;7.13;3.22;;;;;;;4.10;88.86;100819.81;4862206;29;20029;-87
2022/01/18 07:37:09;;;;;;;7.10;3.00;;;;;;;4.10;89.22;100817.19;4861737;29;20029;-87
2022/01/18 07:39:35;;;;;;;5.78;3.30;;;;;;;4.11;88.86;100818.81;4846779;29;20546;-87
2022/01/18 07:42:00;;;;;;;5.60;2.85;;;;;;;4.12;89.24;100824.94;4861979;29;20068;-87
2022/01/18 07:44:25;;;;;;;3.80;2.80;;;;;;;4.11;88.57;100826.75;4846096;29;20030;-85
2022/01/18 07:46:51;;;;;;;5.45;4.40;;;;;;;4.14;88.81;100830.88;4846099;29;20032;-87
2022/01/18 07:49:16;;;;;;;6.82;3.25;;;;;;;4.13;89.04;100832.69;4846488;29;20044;-87
2022/01/18 07:51:42;;;;;;;7.15;3.10;;;;;;;4.14;89.30;100831.72;4861598;29;20562;-87
2022/01/18 07:54:08;;;;;;;4.68;3.10;;;;;;;4.15;89.28;100835.19;4861501;29;20060;-88
2022/01/18 07:56:34;;;;;;;7.93;3.70;;;;;;;4.15;89.21;100841.28;4861300;29;20025;-89
2022/01/18 07:58:59;;;;;;;5.25;3.38;;;;;;;3.98;88.90;100821.06;4846101;29;20034;-89
2022/01/18 08:01:25;;;;;;;4.57;3.28;;;;;;;3.65;88.90;100755.84;4861085;29;20029;-88
2022/01/18 08:03:50;;;;;;;5.35;3.60;;;;;;;4.17;89.08;100843.78;4861057;29;20550;-87
2022/01/18 08:06:15;;;;;;;4.75;3.00;;;;;;;4.15;89.13;100838.66;4845807;29;20034;-88
2022/01/18 08:08:41;;;;;;;4.00;2.90;;;;;;;4.09;89.20;100833.16;4861073;29;20032;-88
2022/01/18 08:11:07;;;;;;;4.07;2.72;;;;;;;4.16;88.95;100839.47;4861159;29;20052;-87
2022/01/18 08:13:39;;;;;;;5.85;3.17;;;;;;;4.16;88.72;100837.69;4861264;29;20116;-89
2022/01/18 08:18:47;;;;;;;5.43;3.08;;;;;;;4.14;88.95;100833.53;4861326;29;20391;-88
2022/01/18 08:21:13;;;;;;;6.10;3.55;;;;;;;4.15;89.42;100832.56;4861752;29;20029;-87
2022/01/18 08:23:38;;;;;;;5.40;3.03;;;;;;;3.74;88.68;100762.84;4845539;29;20628;-89
2022/01/18 08:26:04;;;;;;;4.28;3.10;;;;;;;4.12;88.61;100838.97;4845415;29;20038;-88
2022/01/18 08:28:29;;;;;;;4.68;3.58;;;;;;;3.94;88.97;100809.16;4860800;29;20486;-88
2022/01/18 08:30:54;;;;;;;4.88;3.40;;;;;;;4.15;89.01;100835.19;4845485;29;20038;-88
2022/01/18 08:33:20;;;;;;;3.92;3.08;;;;;;;4.16;88.57;100837.69;4860551;29;20065;-88
2022/01/18 08:35:45;;;;;;;5.38;3.03;;;;;;;4.19;89.51;100839.19;4845378;29;20451;-87
2022/01/18 08:38:11;;;;;;;3.90;3.00;;;;;;;4.20;88.45;100838.19;4845113;29;20116;-88
2022/01/18 08:40:36;;;;;;;3.85;2.90;;;;;;;4.22;88.76;100839.69;4845177;29;20487;-88
2022/01/18 08:43:02;;;;;;;3.72;3.40;;;;;;;4.23;89.23;100837.88;4845331;29;20051;-85
2022/01/18 08:45:27;;;;;;;8.65;4.13;;;;;;;4.19;89.64;100833.91;4838691;29;21776;-86
2022/01/18 08:47:52;;;;;;;3.35;3.05;;;;;;;4.11;89.11;100817.97;4826524;29;20036;-84
2022/01/18 08:50:19;;;;;;;3.83;2.92;;;;;;;4.30;88.93;100850.28;4855775;29;20057;-82
2022/01/18 08:52:48;;;;;;;5.15;2.67;;;;;;;4.32;89.23;100842.22;4858547;29;20037;-84
2022/01/18 08:55:14;;;;;;;4.18;2.67;;;;;;;4.32;89.66;100837.75;4846118;29;20105;-83
2022/01/18 08:57:39;;;;;;;3.63;3.20;;;;;;;4.19;89.43;100828.59;4858753;29;20037;-83
2022/01/18 09:00:08;;;;;;;4.53;2.88;;;;;;;4.16;89.81;100820.97;4855762;29;20049;-83
2022/01/18 09:02:33;;;;;;;6.95;3.67;;;;;;;4.40;89.98;100858.09;4855225;29;20527;-82
2022/01/18 09:04:59;;;;;;;3.60;2.75;;;;;;;4.40;89.91;100855.44;4840841;29;20132;-83
2022/01/18 09:07:24;;;;;;;3.75;2.70;;;;;;;4.42;90.04;100872.81;4857249;29;20032;-82
2022/01/18 09:09:55;;;;;;;3.85;3.08;;;;;;;4.28;90.00;100835.59;4826507;29;20397;-82
2022/01/18 09:12:20;;;;;;;3.72;3.10;;;;;;;4.46;90.34;100865.38;4843966;29;20520;-82
2022/01/18 09:14:46;;;;;;;4.25;2.97;;;;;;;4.33;90.19;100846.50;4835073;29;20132;-83
2022/01/18 09:17:12;;;;;;;4.80;3.15;;;;;;;4.51;89.92;100869.22;4857034;29;20065;-83
2022/01/18 09:19:37;;;;;;;5.53;3.33;;;;;;;4.53;90.22;100869.88;4860615;29;20566;-83
2022/01/18 09:22:03;;;;;;;4.13;3.28;;;;;;;4.49;89.77;100865.06;4858723;29;20030;-83
2022/01/18 09:24:29;;;;;;;5.65;3.30;;;;;;;4.60;90.63;100874.53;4856059;29;20030;-83
2022/01/18 09:26:55;;;;;;;5.03;3.20;;;;;;;4.55;90.59;100873.19;4840396;29;20033;-83
2022/01/18 09:29:21;;;;;;;6.57;3.53;;;;;;;4.65;89.84;100885.44;4856608;29;20041;-83
2022/01/18 09:31:47;;;;;;;6.25;3.50;;;;;;;4.68;89.92;100879.81;4852376;29;20407;-83
2022/01/18 09:34:12;;;;;;;5.60;3.30;;;;;;;4.68;89.43;100879.81;4858108;29;20041;-83
2022/01/18 09:36:37;;;;;;;5.63;3.30;;;;;;;4.70;89.96;100875.19;4851897;29;20042;-83
2022/01/18 09:39:04;;;;;;;5.82;2.90;;;;;;;4.70;89.46;100881.31;4858398;29;20030;-84
2022/01/18 09:41:32;;;;;;;4.15;2.65;;;;;;;4.63;89.44;100869.72;4876591;29;20098;-82
2022/01/18 09:43:58;;;;;;;3.75;3.15;;;;;;;4.70;89.57;100881.31;4858513;29;20025;-83
2022/01/18 09:46:27;;;;;;;3.88;3.05;;;;;;;4.69;89.46;100886.78;4855731;29;20044;-83
2022/01/18 09:48:53;;;;;;;7.93;3.40;;;;;;;4.71;90.01;100892.75;4853850;29;20045;-84
2022/01/18 09:51:19;;;;;;;3.63;3.03;;;;;;;4.72;89.58;100886.47;4854556;29;20090;-85
2022/01/18 09:53:44;;;;;;;4.38;2.88;;;;;;;4.76;89.96;100896.53;4854764;29;20033;-83
2022/01/18 09:56:10;;;;;;;3.53;2.90;;;;;;;4.78;89.68;100888.47;4822702;29;20041;-83
2022/01/18 09:58:35;;;;;;;4.55;3.45;;;;;;;4.80;89.41;100889.13;4827891;29;20037;-84
2022/01/18 10:01:00;;;;;;;5.53;3.53;;;;;;;4.41;89.98;100826.19;4824633;29;20037;-83
2022/01/18 10:03:32;;;;;;;3.85;2.80;;;;;;;4.85;89.87;100884.19;4856258;29;20166;-84
2022/01/18 10:05:58;;;;;;;4.05;2.97;;;;;;;4.86;89.31;100884.03;4857652;29;20038;-83
2022/01/18 10:08:24;;;;;;;5.20;2.60;;;;;;;4.89;90.37;100878.38;4870143;29;20038;-83
2022/01/18 10:10:56;;;;;;;3.47;2.80;;;;;;;4.85;89.67;100876.25;4857237;29;20513;-83
2022/01/18 10:13:24;;;;;;;4.93;2.97;;;;;;;4.85;89.75;100873.63;4857995;29;20036;-84
2022/01/18 10:16:09;;;;;;;7.32;2.92;;;;;;;4.94;89.21;100881.38;4844675;29;20073;-84
2022/01/18 10:18:47;;;;;;;3.40;2.50;;;;;;;4.96;89.24;100871.47;4855878;29;20029;-83
2022/01/18 10:21:31;;;;;;;3.40;2.67;;;;;;;4.75;88.80;100843.81;4851735;29;20499;-83
2022/01/18 10:24:17;;;;;;;5.18;2.28;;;;;;;5.00;89.28;100878.09;4843214;29;20049;-83
2022/01/18 10:26:44;;;;;;;3.88;2.83;;;;;;;4.82;89.29;100844.81;4864088;29;20472;-83
2022/01/18 10:29:11;;;;;;;4.57;2.80;;;;;;;5.06;89.21;100881.91;4857338;29;20498;-83
2022/01/18 10:31:44;;;;;;;3.88;2.50;;;;;;;4.99;88.68;100867.66;4867359;29;20040;-83
2022/01/18 10:36:56;;;;;;;3.90;2.20;;;;;;;5.11;88.93;100876.97;4846637;29;20210;-83
2022/01/18 10:39:27;;;;;;;5.45;3.40;;;;;;;5.12;88.85;100875.97;4863281;29;20025;-82
2022/01/18 10:41:53;;;;;;;3.85;2.63;;;;;;;5.12;88.85;100879.44;4852527;29;20090;-83
2022/01/18 10:44:18;;;;;;;11.00;3.13;;;;;;;5.14;89.28;100873.97;4862529;29;20033;-83
2022/01/18 10:46:48;;;;;;;4.50;2.63;;;;;;;5.16;88.24;100879.94;4861438;29;20098;-83
2022/01/18 10:49:29;;;;;;;4.00;2.30;;;;;;;5.16;88.81;100869.34;4861044;29;20033;-83
2022/01/18 10:52:04;;;;;;;10.55;2.47;;;;;;;5.17;88.36;100874.50;4865901;29;20119;-83
2022/01/18 10:54:34;;;;;;;5.70;2.72;;;;;;;5.17;88.99;100878.97;4866860;29;20041;-83
2022/01/18 10:57:02;;;;;;;8.00;2.88;;;;;;;5.20;87.97;100873.31;4865627;29;20054;-83
2022/01/18 10:59:28;;;;;;;4.65;2.58;;;;;;;5.22;88.10;100882.75;4836929;29;20381;-82
2022/01/18 11:02:04;;;;;;;5.70;2.85;;;;;;;5.22;88.38;100881.94;4857505;29;20052;-83
2022/01/18 11:04:30;;;;;;;5.25;2.70;;;;;;;5.22;88.49;100874.00;4857689;29;20030;-87
2022/01/18 11:07:01;;;;;;;9.05;3.10;;;;;;;5.25;88.53;100885.09;4844659;29;20091;-84
2022/01/18 11:09:27;;;;;;;3.25;2.75;;;;;;;5.13;88.38;100853.81;4868370;29;20075;-85
2022/01/18 11:11:52;;;;;;;8.32;2.65;;;;;;;5.17;88.39;100857.78;4851724;29;20045;-84
2022/01/18 11:14:20;;;;;;;4.90;2.40;;;;;;;5.29;88.75;100874.97;4866465;29;20037;-84
2022/01/18 11:16:48;;;;;;;3.58;2.50;;;;;;;5.28;88.10;100868.88;4865996;29;20078;-83
2022/01/18 11:19:31;;;;;;;2.55;2.13;;;;;;;5.30;88.33;100871.34;4845585;29;20186;-83
2022/01/18 11:22:02;;;;;;;3.60;2.67;;;;;;;5.30;88.05;100880.13;4858075;29;20561;-83
2022/01/18 11:24:29;;;;;;;4.82;2.95;;;;;;;5.32;88.02;100870.19;4860383;29;20035;-82
2022/01/18 11:26:56;;;;;;;2.67;2.20;;;;;;;5.32;88.01;100870.19;4857523;29;20040;-83
2022/01/18 11:29:22;;;;;;;3.50;2.95;;;;;;;5.34;87.88;100870.03;4875526;29;20426;-83
2022/01/18 11:31:50;;;;;;;4.50;2.88;;;;;;;5.33;88.00;100866.53;4845826;29;20207;-83
2022/01/18 11:34:55;;;;;;;4.95;2.80;;;;;;;5.26;87.46;100854.16;4841939;29;20041;-86
2022/01/18 11:37:41;;;;;;;9.77;3.00;;;;;;;5.35;87.72;100873.50;4850990;29;20041;-83
2022/01/18 11:40:11;;;;;;;5.95;2.92;;;;;;;5.35;87.51;100865.56;4861748;29;20521;-85
2022/01/18 11:42:50;;;;;;;3.78;2.90;;;;;;;5.35;87.73;100861.09;4846069;29;20065;-85
2022/01/18 11:45:24;;;;;;;4.25;2.45;;;;;;;5.33;87.26;100861.25;4861478;29;20501;-86
2022/01/18 11:48:16;;;;;;;4.13;3.10;;;;;;;5.35;88.26;100861.09;4861534;29;20494;-86
2022/01/18 11:51:02;;;;;;;7.47;3.65;;;;;;;5.24;87.86;100841.06;4861429;29;20068;-86
2022/01/18 11:53:55;;;;;;;5.38;4.28;;;;;;;5.29;87.61;100859.94;4846974;29;20530;-84
2022/01/18 11:56:40;;;;;;;7.07;3.38;;;;;;;5.34;88.18;100870.03;4845868;29;20033;-84
2022/01/18 11:59:13;;;;;;;4.30;3.35;;;;;;;5.36;87.41;100865.41;4862053;29;20040;-84
2022/01/18 12:01:59;;;;;;;7.03;3.47;;;;;;;5.05;87.76;100817.56;4862728;29;20048;-85
2022/01/18 12:04:57;;;;;;;8.55;3.95;;;;;;;5.29;87.28;100862.56;4855241;29;20036;-84
2022/01/18 12:08:01;;;;;;;7.75;4.03;;;;;;;5.30;87.94;100866.06;4851802;29;20503;-84
2022/01/18 12:10:34;;;;;;;11.90;4.90;;;;;;;5.35;88.48;100870.88;4845916;29;20037;-85
2022/01/18 12:13:04;;;;;;;10.90;4.95;;;;;;;5.33;87.82;100866.53;4857170;29;20034;-84
2022/01/18 12:15:39;;;;;;;9.90;4.95;;;;;;;5.35;88.02;100862.91;4844299;29;20068;-84
2022/01/18 12:18:16;;;;;;;10.48;4.43;;;;;;;5.35;87.70;100861.09;4862917;29;20037;-86
2022/01/18 12:20:46;;;;;;;8.15;4.53;;;;;;;5.05;88.29;100801.69;4850220;29;20030;-84
2022/01/18 12:23:21;;;;;;;11.10;5.10;;;;;;;5.36;87.78;100854.81;4853765;29;20029;-84
2022/01/18 12:25:56;;;;;;;4.57;3.75;;;;;;;5.38;87.95;100842.22;4864432;29;20029;-83
2022/01/18 12:34:49;;;;;;;6.50;4.25;;;;;;;5.29;87.79;100835.28;4855781;29;20115;-83
2022/01/18 12:37:17;;;;;;;5.25;4.10;;;;;;;5.39;88.42;100843.88;4868662;29;20450;-83
2022/01/18 12:39:55;;;;;;;7.95;3.78;;;;;;;5.40;88.20;100845.53;4852338;29;20055;-83
2022/01/18 12:45:11;;;;;;;5.35;4.03;;;;;;;5.41;88.09;100839.25;4856801;29;20077;-82
2022/01/18 12:47:42;;;;;;;10.20;3.85;;;;;;;5.34;87.69;100822.38;4841898;29;20390;-87
2022/01/18 12:50:10;;;;;;;9.85;4.30;;;;;;;5.40;88.03;100834.94;4826786;29;20038;-87
2022/01/18 12:52:48;;;;;;;8.10;3.70;;;;;;;5.48;87.47;100836.75;4842978;29;20082;-86
2022/01/18 12:55:26;;;;;;;8.65;4.32;;;;;;;5.47;87.63;100833.28;4844191;29;20033;-86
2022/01/18 12:58:06;;;;;;;8.45;4.20;;;;;;;5.48;86.78;100828.81;4870661;29;20120;-86
2022/01/18 13:00:43;;;;;;;6.25;3.75;;;;;;;5.50;87.00;100821.53;4874903;29;20037;-85
2022/01/18 13:03:14;;;;;;;9.02;3.63;;;;;;;5.49;87.20;100817.22;4854605;29;20037;-84